Time;durP1;ratioP1;P1;durP2;ratioP2;P2;SDS_P1;SDS_P2;PMS_P1;PMS_P2;Temp;Humidity;BMP_temperature;BMP_pressure;BME280_temperature;BME280_humidity;BME280_pressure;Samples;Min_cycle;Max_cycle;Signal;HPM_P1;HPM_P2
2021/09/28 00:00:12;;;;;;;4.10;1.80;;;14.70;99.90;;;;;;4992441;28;20037;-51
2021/09/28 00:02:37;;;;;;;7.63;2.63;;;14.60;99.90;;;;;;4992411;28;20084;-53
2021/09/28 00:05:03;;;;;;;3.42;2.00;;;14.60;99.90;;;;;;4992712;28;20022;-50
2021/09/28 00:07:29;;;;;;;5.28;2.22;;;14.60;99.90;;;;;;4992506;28;20031;-52
2021/09/28 00:09:54;;;;;;;4.45;1.90;;;14.60;99.90;;;;;;4991968;28;20558;-51
2021/09/28 00:12:20;;;;;;;4.60;2.45;;;14.60;99.90;;;;;;4992553;28;20031;-51
2021/09/28 00:14:46;;;;;;;4.60;2.10;;;14.60;99.90;;;;;;4992076;28;20061;-50
2021/09/28 00:17:12;;;;;;;4.47;2.42;;;14.50;99.90;;;;;;4992195;28;20041;-52
2021/09/28 00:19:38;;;;;;;4.78;2.03;;;14.50;99.90;;;;;;4991990;28;20057;-51
2021/09/28 00:22:05;;;;;;;4.10;1.90;;;14.50;99.90;;;;;;4992268;28;20026;-51
2021/09/28 00:24:31;;;;;;;3.85;1.85;;;14.40;99.90;;;;;;4992244;28;20019;-50
2021/09/28 00:26:57;;;;;;;3.97;2.20;;;14.40;99.90;;;;;;4992323;28;20027;-51
2021/09/28 00:29:22;;;;;;;2.60;1.60;;;14.30;99.90;;;;;;4991938;28;20038;-51
2021/09/28 00:31:48;;;;;;;2.13;1.70;;;14.30;99.90;;;;;;4989503;28;20033;-50
2021/09/28 00:34:13;;;;;;;3.90;2.05;;;14.20;99.90;;;;;;4992097;28;20113;-52
2021/09/28 00:36:39;;;;;;;6.50;2.88;;;14.20;99.90;;;;;;4991954;28;20022;-51
2021/09/28 00:39:04;;;;;;;5.15;2.10;;;14.20;99.90;;;;;;4991541;28;20416;-52
2021/09/28 00:41:30;;;;;;;4.53;2.45;;;14.20;99.90;;;;;;4991115;28;20612;-51
2021/09/28 00:43:57;;;;;;;5.72;2.80;;;14.10;99.90;;;;;;4991856;28;20054;-51
2021/09/28 00:46:23;;;;;;;3.17;2.33;;;14.10;99.90;;;;;;4991836;28;20072;-52
2021/09/28 00:48:49;;;;;;;3.17;1.92;;;14.10;99.90;;;;;;4991553;28;20425;-50
2021/09/28 00:51:16;;;;;;;4.32;2.83;;;14.00;99.90;;;;;;4991146;28;20042;-51
2021/09/28 00:53:43;;;;;;;5.53;2.63;;;14.00;99.90;;;;;;4991526;28;20455;-50
2021/09/28 00:56:13;;;;;;;5.35;2.53;;;14.00;99.90;;;;;;4985151;28;20500;-52
2021/09/28 00:58:39;;;;;;;2.97;2.38;;;13.90;99.90;;;;;;4990315;28;20042;-51
2021/09/28 01:01:06;;;;;;;3.30;2.55;;;13.90;99.90;;;;;;4989014;28;20520;-51
2021/09/28 01:03:32;;;;;;;7.18;2.47;;;13.80;99.90;;;;;;4989240;28;20030;-53
2021/09/28 01:05:59;;;;;;;5.07;2.45;;;13.80;99.90;;;;;;4991565;28;20045;-51
2021/09/28 01:08:25;;;;;;;4.28;2.58;;;13.80;99.90;;;;;;4991243;28;20037;-52
2021/09/28 01:10:51;;;;;;;3.60;2.40;;;13.70;99.90;;;;;;4989715;28;20033;-54
2021/09/28 01:13:17;;;;;;;4.88;2.63;;;13.70;99.90;;;;;;4991623;28;20406;-53
2021/09/28 01:16:06;;;;;;;4.38;2.63;;;13.70;99.90;;;;;;4990939;28;20045;-51
2021/09/28 01:18:34;;;;;;;5.75;2.80;;;13.70;99.90;;;;;;4990776;28;20480;-51
2021/09/28 01:21:00;;;;;;;10.40;2.72;;;13.70;99.90;;;;;;4991180;28;20156;-51
2021/09/28 01:23:26;;;;;;;5.60;3.25;;;13.60;99.90;;;;;;4991099;28;20033;-51
2021/09/28 01:25:52;;;;;;;5.07;3.40;;;13.60;99.90;;;;;;4990439;28;20030;-52
2021/09/28 01:28:18;;;;;;;9.38;3.88;;;13.60;99.90;;;;;;4991059;28;20038;-52
2021/09/28 01:30:43;;;;;;;6.80;4.20;;;13.60;99.90;;;;;;4990671;28;20041;-51
2021/09/28 01:33:09;;;;;;;8.38;4.28;;;13.60;99.90;;;;;;4990940;28;20053;-51
2021/09/28 01:35:39;;;;;;;8.73;4.43;;;13.60;99.90;;;;;;4990865;28;20034;-51
2021/09/28 01:38:06;;;;;;;5.03;3.58;;;13.60;99.90;;;;;;4990819;28;20030;-54
2021/09/28 01:40:33;;;;;;;5.10;3.92;;;13.60;99.90;;;;;;4990268;28;20026;-52
2021/09/28 01:43:06;;;;;;;9.23;4.88;;;13.60;99.90;;;;;;4990470;28;20489;-51
2021/09/28 01:45:32;;;;;;;9.85;4.60;;;13.60;99.90;;;;;;4990665;28;20037;-51
2021/09/28 01:47:58;;;;;;;7.68;5.40;;;13.60;99.90;;;;;;4989413;28;20022;-50
2021/09/28 01:50:24;;;;;;;9.90;5.47;;;13.60;99.90;;;;;;4990180;28;20389;-51
2021/09/28 01:52:49;;;;;;;7.90;6.00;;;13.60;99.90;;;;;;4989278;28;20037;-51
2021/09/28 01:55:15;;;;;;;9.23;5.85;;;13.60;99.90;;;;;;4990641;28;20053;-51
2021/09/28 01:57:40;;;;;;;10.02;6.72;;;13.60;99.90;;;;;;4990721;28;20397;-53
2021/09/28 02:00:06;;;;;;;10.38;7.10;;;13.60;99.90;;;;;;4990631;28;20030;-50
2021/09/28 02:02:32;;;;;;;11.32;6.57;;;13.70;99.90;;;;;;4990766;28;20034;-52
2021/09/28 02:04:57;;;;;;;9.32;7.25;;;13.60;99.90;;;;;;4990095;28;20173;-51
2021/09/28 02:07:23;;;;;;;10.10;7.65;;;13.60;99.90;;;;;;4990432;28;20058;-51
2021/09/28 02:09:49;;;;;;;15.32;8.20;;;13.60;99.90;;;;;;4989986;28;20105;-52
2021/09/28 02:12:14;;;;;;;9.63;7.43;;;13.60;99.90;;;;;;4990685;28;20073;-53
2021/09/28 02:14:40;;;;;;;10.27;6.72;;;13.60;99.90;;;;;;4990177;28;20393;-51
2021/09/28 02:17:06;;;;;;;10.95;6.88;;;13.60;99.90;;;;;;4990497;28;20062;-51
2021/09/28 02:19:32;;;;;;;10.23;7.53;;;13.50;99.90;;;;;;4990177;28;20106;-51
2021/09/28 02:21:57;;;;;;;10.98;6.85;;;13.60;99.90;;;;;;4990372;28;20030;-52
2021/09/28 02:24:23;;;;;;;11.75;6.68;;;13.50;99.90;;;;;;4990162;28;20026;-51
2021/09/28 02:26:48;;;;;;;11.75;6.25;;;13.50;99.90;;;;;;4990443;28;20049;-52
2021/09/28 02:29:14;;;;;;;10.98;6.75;;;13.50;99.90;;;;;;4990378;28;20042;-53
2021/09/28 02:31:39;;;;;;;7.35;5.45;;;13.50;99.90;;;;;;4990984;28;20026;-51
2021/09/28 02:34:10;;;;;;;10.07;6.18;;;13.50;99.90;;;;;;4990952;28;20030;-50
2021/09/28 02:36:37;;;;;;;11.18;6.07;;;13.40;99.90;;;;;;4990659;28;20026;-53
2021/09/28 02:39:10;;;;;;;11.25;6.03;;;13.40;99.90;;;;;;4990170;28;20109;-51
2021/09/28 02:41:36;;;;;;;8.57;4.53;;;13.40;99.90;;;;;;4990636;28;20044;-50
2021/09/28 02:44:03;;;;;;;8.30;6.53;;;13.40;99.90;;;;;;4990618;28;20030;-51
2021/09/28 02:46:29;;;;;;;12.00;6.45;;;13.40;99.90;;;;;;4990816;28;20018;-52
2021/09/28 02:48:55;;;;;;;8.82;6.25;;;13.30;99.90;;;;;;4990455;28;20424;-54
2021/09/28 02:51:21;;;;;;;7.70;5.55;;;13.30;99.90;;;;;;4990111;28;20026;-51
2021/09/28 02:53:46;;;;;;;9.88;5.75;;;13.30;99.90;;;;;;4990606;28;20096;-51
2021/09/28 02:56:12;;;;;;;8.77;5.78;;;13.30;99.90;;;;;;4990562;28;20097;-49
2021/09/28 02:58:37;;;;;;;8.55;5.50;;;13.20;99.90;;;;;;4989269;28;20037;-52
2021/09/28 03:01:03;;;;;;;6.28;4.82;;;13.20;99.90;;;;;;4990485;28;20061;-51
2021/09/28 03:03:29;;;;;;;8.10;5.97;;;13.20;99.90;;;;;;4990781;28;20050;-51
2021/09/28 03:05:54;;;;;;;6.88;4.70;;;13.10;99.90;;;;;;4990238;28;20437;-52
2021/09/28 03:08:20;;;;;;;9.77;5.25;;;13.10;99.90;;;;;;4990315;28;20080;-51
2021/09/28 03:10:45;;;;;;;7.88;5.82;;;13.10;99.90;;;;;;4989940;28;20022;-53
2021/09/28 03:13:12;;;;;;;9.73;5.20;;;13.10;99.90;;;;;;4990513;28;20094;-52
2021/09/28 03:15:37;;;;;;;8.52;6.50;;;13.10;99.90;;;;;;4990233;28;20058;-53
2021/09/28 03:18:03;;;;;;;9.95;6.15;;;13.00;99.90;;;;;;4992172;28;20050;-51
2021/09/28 03:20:29;;;;;;;9.93;6.28;;;13.00;99.90;;;;;;4993551;28;20041;-54
2021/09/28 03:22:54;;;;;;;8.27;6.47;;;13.00;99.90;;;;;;4993853;28;20140;-52
2021/09/28 03:25:20;;;;;;;9.15;6.80;;;13.00;99.90;;;;;;4993560;28;20469;-51
2021/09/28 03:27:46;;;;;;;8.77;6.70;;;13.00;99.90;;;;;;4993631;28;20038;-55
2021/09/28 03:30:12;;;;;;;8.98;7.03;;;13.00;99.90;;;;;;4992087;28;20065;-51
2021/09/28 03:32:38;;;;;;;12.38;7.22;;;13.00;99.90;;;;;;5030509;22;20053;-52
2021/09/28 03:35:09;;;;;;;11.38;7.55;;;13.00;99.90;;;;;;5012918;28;20018;-53
2021/09/28 03:37:35;;;;;;;10.13;6.80;;;13.00;99.90;;;;;;5013010;28;20091;-51
2021/09/28 03:40:01;;;;;;;9.63;6.80;;;13.00;99.90;;;;;;5012491;28;20505;-53
2021/09/28 03:42:27;;;;;;;7.63;5.72;;;13.00;99.90;;;;;;5027852;28;20119;-52
2021/09/28 03:44:53;;;;;;;9.75;6.93;;;13.00;99.90;;;;;;5032654;28;20476;-54
2021/09/28 03:47:19;;;;;;;8.98;6.25;;;13.00;99.90;;;;;;5032553;28;20120;-53
2021/09/28 03:49:44;;;;;;;11.18;7.22;;;13.00;99.90;;;;;;5031688;28;20515;-51
2021/09/28 03:52:10;;;;;;;7.65;6.22;;;13.00;99.90;;;;;;5030976;28;20025;-51
2021/09/28 03:54:35;;;;;;;7.13;6.07;;;13.00;99.90;;;;;;5031237;28;20022;-53
2021/09/28 03:57:01;;;;;;;14.13;6.13;;;12.90;99.90;;;;;;5031068;28;20107;-50
2021/09/28 03:59:27;;;;;;;15.85;6.68;;;12.90;99.90;;;;;;5032148;28;20029;-52
2021/09/28 04:01:52;;;;;;;8.32;5.35;;;12.90;99.90;;;;;;5032209;28;20037;-50
2021/09/28 04:04:18;;;;;;;8.77;5.85;;;12.90;99.90;;;;;;5032413;28;20488;-52
2021/09/28 04:06:43;;;;;;;11.00;6.40;;;12.90;99.90;;;;;;5032323;28;20031;-53
2021/09/28 04:09:09;;;;;;;8.23;5.88;;;12.80;99.90;;;;;;5031882;28;20460;-51
2021/09/28 04:11:34;;;;;;;7.32;6.18;;;12.80;99.90;;;;;;5030840;28;20026;-51
2021/09/28 04:14:00;;;;;;;12.25;7.65;;;12.90;99.90;;;;;;5030841;28;20032;-51
2021/09/28 04:16:28;;;;;;;10.60;7.65;;;12.90;99.90;;;;;;5031751;28;20096;-50
2021/09/28 04:18:53;;;;;;;9.25;7.00;;;12.80;99.90;;;;;;5032049;28;20101;-50
2021/09/28 04:21:19;;;;;;;8.90;6.57;;;12.80;99.90;;;;;;5031932;28;20116;-52
2021/09/28 04:23:45;;;;;;;8.07;6.60;;;12.80;99.90;;;;;;5031883;28;20022;-52
2021/09/28 04:26:12;;;;;;;12.63;7.13;;;12.80;99.90;;;;;;5031409;28;20383;-53
2021/09/28 04:28:38;;;;;;;12.25;6.75;;;12.80;99.90;;;;;;5029946;28;20021;-50
2021/09/28 04:31:03;;;;;;;8.40;7.05;;;12.80;99.90;;;;;;5031484;28;20040;-51
2021/09/28 04:33:29;;;;;;;8.35;7.55;;;12.80;99.90;;;;;;5031689;28;20108;-51
2021/09/28 04:35:55;;;;;;;11.70;7.75;;;12.80;99.90;;;;;;5030676;28;20387;-50
2021/09/28 04:38:20;;;;;;;14.02;8.57;;;12.80;99.90;;;;;;5031723;28;20029;-50
2021/09/28 04:40:46;;;;;;;8.45;7.55;;;12.80;99.90;;;;;;5031324;28;20055;-51
2021/09/28 04:43:11;;;;;;;16.00;8.43;;;12.80;99.90;;;;;;5030098;28;20072;-52
2021/09/28 04:45:37;;;;;;;11.10;7.18;;;12.80;99.90;;;;;;5031642;28;20030;-55
2021/09/28 04:48:03;;;;;;;10.70;7.45;;;12.70;99.90;;;;;;5030249;28;20022;-50
2021/09/28 04:50:28;;;;;;;10.95;7.30;;;12.70;99.90;;;;;;5031163;28;20022;-54
2021/09/28 04:52:54;;;;;;;10.80;6.88;;;12.70;99.90;;;;;;5031435;28;20082;-50
2021/09/28 04:55:20;;;;;;;8.95;7.07;;;12.70;99.90;;;;;;5031434;28;20376;-50
2021/09/28 04:57:45;;;;;;;8.27;6.30;;;12.60;99.90;;;;;;5031713;28;20044;-51
2021/09/28 05:00:11;;;;;;;12.90;7.28;;;12.60;99.90;;;;;;5030997;28;20179;-51
2021/09/28 05:02:37;;;;;;;7.63;5.95;;;12.60;99.90;;;;;;5031112;28;20032;-54
2021/09/28 05:05:04;;;;;;;8.90;7.15;;;12.60;99.90;;;;;;5031468;28;20118;-50
2021/09/28 05:07:30;;;;;;;9.23;6.47;;;12.50;99.90;;;;;;5030271;28;20033;-50
2021/09/28 05:09:55;;;;;;;7.13;5.78;;;12.50;99.90;;;;;;5029410;28;20634;-53
2021/09/28 05:12:21;;;;;;;9.27;5.88;;;12.50;99.90;;;;;;5031084;28;20029;-51
2021/09/28 05:14:47;;;;;;;10.02;5.95;;;12.50;99.90;;;;;;5030673;28;20025;-50
2021/09/28 05:17:12;;;;;;;11.55;6.82;;;12.50;99.90;;;;;;5030774;28;20044;-50
2021/09/28 05:19:38;;;;;;;10.13;6.25;;;12.40;99.90;;;;;;5030657;28;20064;-50
2021/09/28 05:22:04;;;;;;;12.23;6.43;;;12.40;99.90;;;;;;5030715;28;20037;-51
2021/09/28 05:24:29;;;;;;;7.30;5.38;;;12.40;99.90;;;;;;5030544;28;20034;-51
2021/09/28 05:26:55;;;;;;;9.10;5.45;;;12.50;99.90;;;;;;5030743;28;20107;-51
2021/09/28 05:29:20;;;;;;;8.77;5.97;;;12.40;99.90;;;;;;5030586;28;20024;-50
2021/09/28 05:31:47;;;;;;;15.38;5.95;;;12.40;99.90;;;;;;5030234;28;20021;-51
2021/09/28 05:34:14;;;;;;;6.90;5.13;;;12.40;99.90;;;;;;5030771;28;20017;-51
2021/09/28 05:36:39;;;;;;;6.35;5.75;;;12.40;99.90;;;;;;5030870;28;20518;-51
2021/09/28 05:39:05;;;;;;;6.82;4.72;;;12.30;99.90;;;;;;5030567;28;20030;-54
2021/09/28 05:41:31;;;;;;;7.00;4.82;;;12.30;99.90;;;;;;5028460;28;20049;-53
2021/09/28 05:43:57;;;;;;;5.30;4.13;;;12.30;99.90;;;;;;5030499;28;20424;-51
2021/09/28 05:46:22;;;;;;;7.53;4.90;;;12.30;99.90;;;;;;5029193;28;20627;-51
2021/09/28 05:48:48;;;;;;;8.55;5.30;;;12.20;99.90;;;;;;5030305;28;20403;-51
2021/09/28 05:51:17;;;;;;;5.80;3.83;;;12.20;99.90;;;;;;5030074;28;20033;-52
2021/09/28 05:53:44;;;;;;;5.78;3.85;;;12.20;99.90;;;;;;5030338;28;20483;-54
2021/09/28 05:56:11;;;;;;;4.50;3.92;;;12.20;99.90;;;;;;5030469;28;20033;-51
2021/09/28 05:58:37;;;;;;;6.57;4.05;;;12.20;99.90;;;;;;5030368;28;20047;-52
2021/09/28 06:01:02;;;;;;;7.35;3.95;;;12.10;99.90;;;;;;5028610;28;20484;-52
2021/09/28 06:03:28;;;;;;;7.13;4.18;;;12.10;99.90;;;;;;5030369;28;20025;-53
2021/09/28 06:05:53;;;;;;;8.05;4.10;;;12.10;99.90;;;;;;5030543;28;20030;-53
2021/09/28 06:08:19;;;;;;;7.43;2.97;;;12.10;99.90;;;;;;5030429;28;20029;-50
2021/09/28 06:10:45;;;;;;;7.47;3.60;;;12.00;99.90;;;;;;5029646;28;20025;-50
2021/09/28 06:13:10;;;;;;;8.45;3.53;;;12.00;99.90;;;;;;5030256;28;20060;-53
2021/09/28 06:15:36;;;;;;;5.75;3.08;;;12.00;99.90;;;;;;5029794;28;20083;-51
2021/09/28 06:18:01;;;;;;;8.60;3.25;;;12.00;99.90;;;;;;5028706;28;20072;-50
2021/09/28 06:20:27;;;;;;;4.63;3.17;;;12.00;99.90;;;;;;5029907;28;20511;-52
2021/09/28 06:22:53;;;;;;;6.15;3.15;;;12.00;99.90;;;;;;5030105;28;20427;-56
2021/09/28 06:25:18;;;;;;;4.63;2.85;;;12.00;99.90;;;;;;5028697;28;20092;-55
2021/09/28 06:27:44;;;;;;;7.38;3.42;;;12.00;99.90;;;;;;5030194;28;20025;-55
2021/09/28 06:30:10;;;;;;;5.45;3.28;;;12.00;99.90;;;;;;5030028;28;20136;-54
2021/09/28 06:32:35;;;;;;;6.18;2.90;;;12.00;99.90;;;;;;5029864;28;20122;-52
2021/09/28 06:35:01;;;;;;;5.72;3.28;;;12.00;99.90;;;;;;5030287;28;20502;-51
2021/09/28 06:37:27;;;;;;;7.57;3.20;;;12.10;99.90;;;;;;5028769;28;20086;-53
2021/09/28 06:39:52;;;;;;;7.72;3.40;;;12.10;99.90;;;;;;5029904;28;20037;-51
2021/09/28 06:42:18;;;;;;;4.80;3.30;;;12.10;99.90;;;;;;5029963;28;20032;-53
2021/09/28 06:44:44;;;;;;;4.68;2.50;;;12.10;99.90;;;;;;5029949;28;20052;-52
2021/09/28 06:47:09;;;;;;;4.63;2.30;;;12.20;99.90;;;;;;5030054;28;20060;-54
2021/09/28 06:49:35;;;;;;;7.53;2.28;;;12.20;99.90;;;;;;5029581;28;20021;-51
2021/09/28 06:52:00;;;;;;;5.75;3.08;;;12.20;99.90;;;;;;5031551;28;20057;-54
2021/09/28 06:54:26;;;;;;;2.20;1.98;;;12.20;99.90;;;;;;5033859;28;20041;-52
2021/09/28 06:56:51;;;;;;;4.55;2.22;;;12.20;99.90;;;;;;5032450;28;20116;-51
2021/09/28 06:59:18;;;;;;;7.10;2.90;;;12.20;99.90;;;;;;5033388;28;20029;-53
2021/09/28 07:01:44;;;;;;;3.75;2.50;;;12.20;99.90;;;;;;5033414;28;20026;-52
2021/09/28 07:04:09;;;;;;;4.97;2.78;;;12.20;99.90;;;;;;5033376;28;20036;-55
2021/09/28 07:06:35;;;;;;;7.10;2.65;;;12.20;99.90;;;;;;5032137;28;20455;-50
2021/09/28 07:09:01;;;;;;;8.27;3.03;;;12.20;99.90;;;;;;5033281;28;20080;-54
2021/09/28 07:11:27;;;;;;;4.80;2.90;;;12.10;99.90;;;;;;5030812;28;20028;-52
2021/09/28 07:13:53;;;;;;;4.15;2.58;;;12.20;99.90;;;;;;5033129;28;20048;-51
2021/09/28 07:16:19;;;;;;;4.15;2.78;;;12.20;99.90;;;;;;5033048;28;20061;-51
2021/09/28 07:18:46;;;;;;;9.93;2.80;;;12.10;99.90;;;;;;5031727;28;20590;-51
2021/09/28 07:21:12;;;;;;;7.85;1.88;;;12.10;99.90;;;;;;5031487;28;20025;-53
2021/09/28 07:23:38;;;;;;;3.28;2.05;;;12.10;99.90;;;;;;5033127;28;20443;-52
2021/09/28 07:26:05;;;;;;;6.72;2.50;;;12.20;99.90;;;;;;5031198;28;20022;-52
2021/09/28 07:28:31;;;;;;;7.88;2.65;;;12.20;99.90;;;;;;5032481;28;20049;-52
2021/09/28 07:30:56;;;;;;;6.60;2.53;;;12.20;99.90;;;;;;5031952;28;20029;-51
2021/09/28 07:33:22;;;;;;;3.60;2.50;;;12.30;99.90;;;;;;5032511;28;20032;-52
2021/09/28 07:35:48;;;;;;;9.00;2.88;;;12.40;99.90;;;;;;5032446;28;20566;-52
2021/09/28 07:38:16;;;;;;;4.93;2.60;;;12.50;99.90;;;;;;5031272;28;20395;-50
2021/09/28 07:40:44;;;;;;;6.40;2.97;;;12.60;99.90;;;;;;5032241;28;20084;-54
2021/09/28 07:43:11;;;;;;;5.70;2.35;;;12.70;99.90;;;;;;5032145;28;20033;-51
2021/09/28 07:45:37;;;;;;;4.32;2.35;;;12.70;99.90;;;;;;5031127;28;20021;-52
2021/09/28 07:48:04;;;;;;;3.95;2.13;;;12.80;99.90;;;;;;5032455;28;20022;-50
2021/09/28 07:50:29;;;;;;;3.35;2.30;;;12.90;99.90;;;;;;5032017;28;20031;-50
2021/09/28 07:52:56;;;;;;;5.15;2.22;;;13.00;99.90;;;;;;5032066;28;20029;-50
2021/09/28 07:55:21;;;;;;;7.90;3.45;;;13.20;99.90;;;;;;5032205;28;20026;-50
2021/09/28 07:57:47;;;;;;;6.20;2.20;;;13.30;99.90;;;;;;5031886;28;20043;-52
2021/09/28 08:00:13;;;;;;;3.35;2.13;;;13.50;99.90;;;;;;5031722;28;20044;-50
2021/09/28 08:02:39;;;;;;;4.03;2.25;;;13.60;99.90;;;;;;5031450;28;20033;-50
2021/09/28 08:05:06;;;;;;;6.05;3.00;;;13.80;99.90;;;;;;5031593;28;20038;-49
2021/09/28 08:07:32;;;;;;;3.85;2.08;;;14.00;99.90;;;;;;5031932;28;20618;-51
2021/09/28 08:09:58;;;;;;;2.95;2.00;;;14.20;99.90;;;;;;5031443;28;20082;-50
2021/09/28 08:12:24;;;;;;;3.80;1.98;;;14.20;99.90;;;;;;5031862;28;20029;-55
2021/09/28 08:14:49;;;;;;;13.73;6.18;;;14.30;99.90;;;;;;5031607;28;20056;-51
2021/09/28 08:17:15;;;;;;;35.05;16.02;;;14.30;99.90;;;;;;5031612;28;20021;-51
2021/09/28 08:19:43;;;;;;;14.10;4.90;;;14.30;99.90;;;;;;5031479;28;20025;-50
2021/09/28 08:22:11;;;;;;;5.35;2.40;;;14.50;99.90;;;;;;5031125;28;20546;-52
2021/09/28 08:24:42;;;;;;;3.88;2.05;;;14.70;99.90;;;;;;5031869;28;20029;-53
2021/09/28 08:30:00;;;;;;;4.55;1.95;;;15.10;99.90;;;;;;5031702;28;20040;-51
2021/09/28 08:32:26;;;;;;;4.43;1.90;;;15.30;99.90;;;;;;5031718;28;20029;-51
2021/09/28 08:34:52;;;;;;;2.78;1.67;;;15.40;99.90;;;;;;5031726;28;20021;-51
2021/09/28 08:37:19;;;;;;;7.30;1.88;;;15.60;99.90;;;;;;5031511;28;20030;-53
2021/09/28 08:39:46;;;;;;;4.53;1.88;;;15.70;99.90;;;;;;5031411;28;20084;-51
2021/09/28 08:42:12;;;;;;;3.58;1.83;;;15.90;99.90;;;;;;5031458;28;20475;-51
2021/09/28 08:44:40;;;;;;;3.15;1.50;;;16.00;99.90;;;;;;5031788;28;20030;-50
2021/09/28 08:47:05;;;;;;;5.07;1.30;;;16.10;99.90;;;;;;5031871;28;20109;-54
2021/09/28 08:49:31;;;;;;;5.28;1.20;;;16.20;99.90;;;;;;5031031;28;20482;-51
2021/09/28 08:51:57;;;;;;;3.55;1.52;;;16.30;99.90;;;;;;5031304;28;20052;-52
2021/09/28 08:54:23;;;;;;;1.80;1.02;;;16.40;99.90;;;;;;5031555;28;20022;-50
2021/09/28 08:56:48;;;;;;;3.78;1.00;;;16.50;99.90;;;;;;5031657;28;20026;-51
2021/09/28 08:59:15;;;;;;;6.55;1.38;;;16.60;99.90;;;;;;5031081;28;20028;-51
2021/09/28 09:02:08;;;;;;;2.72;1.23;;;16.70;99.90;;;;;;5031229;28;20446;-51
2021/09/28 09:04:33;;;;;;;2.95;1.27;;;16.70;99.90;;;;;;5031187;28;20108;-52
2021/09/28 09:06:59;;;;;;;3.40;1.00;;;16.70;99.90;;;;;;5031008;28;20108;-54
2021/09/28 09:09:26;;;;;;;2.53;0.90;;;16.70;99.90;;;;;;5029302;28;20044;-52
2021/09/28 09:11:52;;;;;;;4.40;1.10;;;16.80;99.90;;;;;;5030950;28;20041;-51
2021/09/28 09:14:26;;;;;;;2.35;1.08;;;16.70;99.90;;;;;;5030866;28;20021;-52
2021/09/28 09:16:55;;;;;;;3.28;0.98;;;16.80;99.90;;;;;;5031247;28;20098;-53
2021/09/28 09:19:28;;;;;;;1.98;0.70;;;16.80;99.90;;;;;;5029804;28;20017;-51
2021/09/28 09:22:01;;;;;;;1.55;0.70;;;16.80;99.90;;;;;;5030681;28;20029;-54
2021/09/28 09:24:43;;;;;;;1.00;0.50;;;16.80;99.90;;;;;;5030588;28;20484;-53
2021/09/28 09:27:11;;;;;;;2.45;1.10;;;16.80;99.90;;;;;;5030953;28;20021;-53
2021/09/28 09:29:37;;;;;;;1.15;0.77;;;16.80;99.90;;;;;;5030462;28;20029;-52
2021/09/28 09:32:03;;;;;;;2.58;0.90;;;16.80;99.90;;;;;;5128828;23;20068;-50
2021/09/28 09:34:29;;;;;;;1.83;0.80;;;16.80;99.90;;;;;;4990830;28;20093;-51
2021/09/28 09:36:56;;;;;;;1.98;0.75;;;16.80;99.90;;;;;;4991287;28;20054;-50
2021/09/28 09:39:22;;;;;;;2.40;0.90;;;16.80;99.90;;;;;;4989705;28;20109;-52
2021/09/28 09:42:02;;;;;;;1.90;0.73;;;16.80;99.90;;;;;;4991050;28;20169;-52
2021/09/28 09:44:30;;;;;;;2.83;0.80;;;16.70;99.90;;;;;;4991399;28;20125;-51
2021/09/28 09:46:56;;;;;;;2.92;0.90;;;16.70;99.90;;;;;;4991412;28;20045;-50
2021/09/28 09:49:23;;;;;;;2.03;0.80;;;16.70;99.90;;;;;;4991029;28;20054;-52
2021/09/28 09:51:54;;;;;;;2.70;0.82;;;16.70;99.90;;;;;;4991397;28;20146;-52
2021/09/28 09:54:35;;;;;;;4.10;0.93;;;16.80;99.90;;;;;;4991243;28;20030;-51
2021/09/28 09:57:04;;;;;;;3.35;0.70;;;16.70;99.90;;;;;;4991089;28;20027;-51
2021/09/28 09:59:30;;;;;;;4.07;0.52;;;16.80;99.90;;;;;;4990739;28;20019;-52
2021/09/28 10:01:56;;;;;;;0.90;0.60;;;16.70;99.90;;;;;;4990757;28;20477;-51
2021/09/28 10:04:23;;;;;;;1.05;0.75;;;16.70;99.90;;;;;;4990984;28;20038;-51
2021/09/28 10:06:49;;;;;;;4.13;1.17;;;16.70;99.90;;;;;;4990965;28;20026;-51
2021/09/28 10:09:21;;;;;;;3.75;0.85;;;16.70;99.90;;;;;;4990483;28;20241;-51
2021/09/28 10:11:54;;;;;;;3.13;0.80;;;16.70;99.90;;;;;;4991050;28;20022;-51
2021/09/28 10:14:35;;;;;;;3.42;0.73;;;16.70;99.90;;;;;;4990945;28;20022;-52
2021/09/28 10:17:24;;;;;;;1.77;0.60;;;16.70;99.90;;;;;;4990965;28;20033;-54
2021/09/28 10:19:56;;;;;;;3.22;0.80;;;16.80;99.90;;;;;;4990989;28;20030;-51
2021/09/28 10:22:46;;;;;;;2.45;0.80;;;16.80;99.90;;;;;;4990860;28;20048;-53
2021/09/28 10:27:53;;;;;;;1.38;0.63;;;16.80;99.90;;;;;;4993912;28;20062;-51
2021/09/28 10:30:34;;;;;;;2.33;0.90;;;16.80;99.90;;;;;;4994434;28;20022;-53
2021/09/28 10:33:01;;;;;;;5.95;0.60;;;16.80;99.90;;;;;;4994484;28;20568;-53
2021/09/28 10:35:27;;;;;;;2.55;0.85;;;16.80;99.90;;;;;;4994886;28;20026;-52
2021/09/28 10:38:02;;;;;;;4.00;0.73;;;16.80;99.90;;;;;;4994836;28;20027;-52
2021/09/28 10:40:30;;;;;;;2.47;0.77;;;16.80;99.90;;;;;;4994301;28;20038;-52
2021/09/28 10:43:04;;;;;;;2.50;0.82;;;16.80;99.90;;;;;;4994507;28;20105;-51
2021/09/28 10:45:31;;;;;;;2.95;0.60;;;16.90;99.90;;;;;;4994518;28;20062;-50
2021/09/28 10:47:57;;;;;;;2.65;0.55;;;16.80;99.90;;;;;;4994594;28;20022;-51
2021/09/28 10:50:42;;;;;;;2.58;0.60;;;16.80;99.90;;;;;;4994181;28;20073;-53
2021/09/28 10:53:20;;;;;;;1.88;0.77;;;16.90;99.90;;;;;;4994909;28;20032;-53
2021/09/28 10:56:07;;;;;;;2.33;1.05;;;16.80;99.90;;;;;;4994585;28;20061;-52
2021/09/28 10:58:56;;;;;;;2.42;0.50;;;16.80;99.90;;;;;;4994383;28;20515;-52
2021/09/28 11:01:27;;;;;;;2.13;0.65;;;16.70;99.90;;;;;;4994169;28;20026;-52
2021/09/28 11:03:55;;;;;;;0.73;0.40;;;16.70;99.90;;;;;;4993936;28;20030;-52
2021/09/28 11:06:42;;;;;;;2.58;0.60;;;16.70;99.90;;;;;;4994120;28;20504;-54
2021/09/28 11:09:08;;;;;;;2.47;0.80;;;16.80;99.90;;;;;;4993558;28;20038;-52
2021/09/28 11:11:34;;;;;;;1.52;0.40;;;16.80;99.90;;;;;;4993967;28;20072;-51
2021/09/28 11:14:02;;;;;;;3.53;0.98;;;16.80;99.90;;;;;;4994159;28;20037;-51
2021/09/28 11:16:28;;;;;;;2.03;0.45;;;16.90;99.90;;;;;;4993701;28;20030;-52
2021/09/28 11:18:59;;;;;;;0.20;0.20;;;16.90;99.90;;;;;;4994038;28;20366;-50
2021/09/28 11:21:25;;;;;;;2.72;0.55;;;16.90;99.90;;;;;;4992844;28;20030;-52
2021/09/28 11:23:53;;;;;;;2.13;0.80;;;17.00;99.90;;;;;;4993821;28;20374;-51
2021/09/28 11:26:28;;;;;;;1.30;0.60;;;17.00;99.90;;;;;;4992294;28;20109;-50
2021/09/28 11:28:55;;;;;;;1.23;0.30;;;17.00;99.90;;;;;;4993851;28;20053;-52
2021/09/28 11:31:30;;;;;;;0.80;0.47;;;17.00;99.90;;;;;;4993665;28;20038;-52
2021/09/28 11:33:57;;;;;;;2.58;0.55;;;17.00;99.90;;;;;;4993624;28;20069;-52
2021/09/28 11:36:23;;;;;;;2.47;0.55;;;17.00;99.90;;;;;;4992325;28;20033;-51
2021/09/28 11:38:50;;;;;;;1.23;0.45;;;17.00;99.90;;;;;;4992111;28;20026;-51
2021/09/28 11:41:17;;;;;;;2.45;0.70;;;17.10;99.90;;;;;;4993325;28;20033;-52
2021/09/28 11:43:49;;;;;;;2.47;0.60;;;17.00;99.90;;;;;;4993316;28;20030;-52
2021/09/28 11:46:17;;;;;;;2.35;0.40;;;17.00;99.90;;;;;;4993548;28;20031;-52
2021/09/28 11:48:48;;;;;;;2.25;0.77;;;16.90;99.90;;;;;;4993417;28;20029;-52
2021/09/28 11:51:25;;;;;;;1.75;0.45;;;16.90;99.90;;;;;;4993012;28;20057;-51
2021/09/28 11:53:55;;;;;;;2.28;0.63;;;16.90;99.90;;;;;;4993488;28;20061;-52
2021/09/28 11:56:23;;;;;;;0.47;0.35;;;16.90;99.90;;;;;;4993464;28;20037;-51
2021/09/28 11:58:50;;;;;;;2.83;0.70;;;17.10;99.90;;;;;;4993481;28;20022;-53
2021/09/28 12:01:17;;;;;;;1.85;0.38;;;17.10;99.90;;;;;;4993183;28;20468;-51
2021/09/28 12:07:06;;;;;;;0.88;0.40;;;17.10;99.90;;;;;;4993141;28;20081;-50
2021/09/28 12:09:34;;;;;;;0.70;0.63;;;17.10;99.90;;;;;;4992696;28;20105;-52
2021/09/28 12:12:05;;;;;;;2.63;0.75;;;17.10;99.90;;;;;;4991537;28;20523;-52
2021/09/28 12:14:38;;;;;;;1.73;0.63;;;17.20;99.90;;;;;;4992483;28;20499;-51
2021/09/28 12:17:15;;;;;;;1.27;0.43;;;17.20;99.90;;;;;;4993058;28;20030;-51
2021/09/28 12:19:51;;;;;;;1.08;0.55;;;17.20;99.90;;;;;;4992689;28;20559;-51
2021/09/28 12:22:26;;;;;;;;;;;17.20;99.90;;;;;;4993074;28;20518;-51
2021/09/28 12:24:54;;;;;;;2.35;0.63;;;17.20;99.90;;;;;;4992578;28;19913;-51
2021/09/28 12:27:20;;;;;;;1.23;0.52;;;17.30;99.90;;;;;;4992768;28;20029;-54
2021/09/28 12:29:49;;;;;;;2.58;0.57;;;17.30;99.90;;;;;;4992605;28;20022;-53
2021/09/28 12:32:22;;;;;;;2.33;0.95;;;17.40;99.90;;;;;;4992637;28;20026;-52
2021/09/28 12:34:51;;;;;;;2.92;0.68;;;17.40;99.90;;;;;;4991196;28;20493;-51
2021/09/28 12:37:17;;;;;;;1.85;0.50;;;17.40;99.90;;;;;;4992565;28;20038;-50
2021/09/28 12:40:01;;;;;;;0.95;0.73;;;17.50;99.90;;;;;;4992199;28;20028;-51
2021/09/28 12:42:27;;;;;;;0.50;0.50;;;17.50;99.90;;;;;;4992392;28;20026;-51
2021/09/28 12:45:00;;;;;;;0.47;0.43;;;17.50;99.90;;;;;;4992497;28;20397;-52
2021/09/28 12:47:29;;;;;;;1.58;0.50;;;17.50;99.90;;;;;;4992216;28;20037;-51
2021/09/28 12:49:55;;;;;;;0.82;0.40;;;17.50;99.90;;;;;;4991768;28;20101;-52
2021/09/28 12:52:20;;;;;;;1.55;1.08;;;17.50;99.90;;;;;;4992189;28;20022;-52
2021/09/28 12:54:46;;;;;;;1.15;0.40;;;17.50;99.90;;;;;;4992105;28;20084;-52